Menifee, Arkansas
Current Conditions -  °F | °C
As of 11:58 PM on Friday 28 Nov 2014 (Local Time) from KLRF Reporting Station
Clear Clear  
Wind Chill: 45°   Ceiling: Unl
Heat Index: 48°   Visibility: 10mi
Dew Point: 38°   Wind: 6mph
Humidity: 68%   Direction: 190°S
Pressure: 30.03"   Gusts: NA
Location:  35.15°N, 92.55°W
Report Text: KLRF 290558Z AUTO 19005KT 10SM CLR 09/03 A3003 RMK AO2 SLP172 T00890032 10106 20088 401461040 57009 $
Loading
Personal Weather Stations






























Interactive Weather Map New forecast layout! Learn more

10-Day Weather Forecast

Advertisements
Track Severe Weather on mobile